Time;durP1;ratioP1;P1;durP2;ratioP2;P2;SDS_P1;SDS_P2;PMS_P1;PMS_P2;Temp;Humidity;BMP_temperature;BMP_pressure;BME280_temperature;BME280_humidity;BME280_pressure;Samples;Min_cycle;Max_cycle;Signal;HPM_P1;HPM_P2
2023/09/19 00:02:12;;;;;;;61.42;58.28;;;;;;;;;;5041211;28;20540;-64
2023/09/19 00:04:39;;;;;;;56.95;54.00;;;;;;;;;;5040150;28;20550;-63
2023/09/19 00:07:05;;;;;;;59.20;56.13;;;;;;;;;;5037757;28;20834;-63
2023/09/19 00:09:36;;;;;;;59.55;56.53;;;;;;;;;;5037939;28;20594;-63
2023/09/19 00:12:03;;;;;;;61.15;58.03;;;;;;;;;;5043557;28;20033;-63
2023/09/19 00:14:28;;;;;;;61.30;58.17;;;;;;;;;;5039533;28;20033;-63
2023/09/19 00:16:54;;;;;;;61.30;58.17;;;;;;;;;;5041688;28;20063;-64
2023/09/19 00:19:20;;;;;;;63.53;60.28;;;;;;;;;;5027351;28;20159;-64
2023/09/19 00:21:47;;;;;;;63.33;60.13;;;;;;;;;;5040153;28;20033;-65
2023/09/19 00:24:13;;;;;;;61.08;57.95;;;;;;;;;;5040015;28;20056;-65
2023/09/19 00:26:39;;;;;;;63.92;60.67;;;;;;;;;;5038658;28;20029;-64
2023/09/19 00:29:08;;;;;;;63.22;59.97;;;;;;;;;;5039156;28;20044;-65
2023/09/19 00:31:36;;;;;;;62.15;59.00;;;;;;;;;;5041457;28;20052;-66
2023/09/19 00:34:04;;;;;;;65.90;62.53;;;;;;;;;;5039804;28;20032;-65
2023/09/19 00:36:29;;;;;;;64.07;60.72;;;;;;;;;;5037148;28;20455;-65
2023/09/19 00:38:54;;;;;;;54.50;51.70;;;;;;;;;;5038922;28;20044;-65
2023/09/19 00:41:21;;;;;;;56.05;53.17;;;;;;;;;;5042050;28;20037;-65
2023/09/19 00:43:47;;;;;;;56.45;53.58;;;;;;;;;;5039977;28;20136;-65
2023/09/19 00:46:17;;;;;;;54.22;51.47;;;;;;;;;;5036671;28;20041;-65
2023/09/19 00:48:46;;;;;;;51.75;49.10;;;;;;;;;;5040935;28;20496;-65
2023/09/19 00:51:13;;;;;;;57.90;54.65;;;;;;;;;;5038779;28;20124;-65
2023/09/19 00:53:39;;;;;;;57.88;54.90;;;;;;;;;;5039451;28;20906;-65
2023/09/19 00:56:07;;;;;;;56.65;53.78;;;;;;;;;;5039517;28;20043;-65
2023/09/19 00:58:35;;;;;;;58.97;55.88;;;;;;;;;;5034838;28;20047;-65
2023/09/19 01:01:01;;;;;;;55.92;53.05;;;;;;;;;;5035439;28;20037;-65
2023/09/19 01:03:27;;;;;;;58.83;55.83;;;;;;;;;;5038438;28;20102;-65
2023/09/19 01:05:53;;;;;;;60.75;57.67;;;;;;;;;;5039912;28;20584;-65
2023/09/19 01:08:18;;;;;;;64.40;61.15;;;;;;;;;;5038139;28;20033;-65
2023/09/19 01:10:52;;;;;;;66.35;63.00;;;;;;;;;;5038070;28;20032;-65
2023/09/19 01:13:47;;;;;;;62.63;59.13;;;;;;;;;;5040069;28;20048;-65
2023/09/19 01:16:43;;;;;;;64.60;61.30;;;;;;;;;;5040099;28;20110;-64
2023/09/19 01:19:49;;;;;;;60.75;57.67;;;;;;;;;;5036189;28;20025;-65
2023/09/19 01:23:02;;;;;;;57.53;54.63;;;;;;;;;;5037415;28;20051;-64
2023/09/19 01:25:47;;;;;;;55.92;53.08;;;;;;;;;;4997797;28;20445;-66
2023/09/19 01:28:21;;;;;;;57.80;54.70;;;;;;;;;;4986568;28;20033;-65
2023/09/19 01:30:54;;;;;;;65.18;61.88;;;;;;;;;;5026350;28;20045;-64
2023/09/19 01:33:20;;;;;;;61.83;58.63;;;;;;;;;;5038731;28;20079;-64
2023/09/19 01:35:45;;;;;;;64.63;61.33;;;;;;;;;;5039513;28;20049;-64
2023/09/19 01:38:11;;;;;;;64.80;61.53;;;;;;;;;;5021750;28;20075;-64
2023/09/19 01:40:51;;;;;;;67.20;63.80;;;;;;;;;;5036932;28;20105;-65
2023/09/19 01:43:25;;;;;;;63.77;60.53;;;;;;;;;;5034719;28;20037;-65
2023/09/19 01:46:01;;;;;;;59.47;56.42;;;;;;;;;;5039499;28;20283;-65
2023/09/19 01:49:03;;;;;;;58.45;55.47;;;;;;;;;;5038220;28;20037;-65
2023/09/19 01:51:51;;;;;;;57.75;54.80;;;;;;;;;;5020633;28;20033;-66
2023/09/19 01:54:26;;;;;;;61.30;58.13;;;;;;;;;;5037919;28;20086;-66
2023/09/19 01:57:04;;;;;;;66.95;63.58;;;;;;;;;;5039914;28;20048;-66
2023/09/19 01:59:36;;;;;;;63.47;60.08;;;;;;;;;;5039554;28;20040;-66
2023/09/19 02:02:03;;;;;;;64.82;61.55;;;;;;;;;;5040601;28;20456;-65
2023/09/19 02:04:28;;;;;;;63.70;60.45;;;;;;;;;;5039619;28;20483;-64
2023/09/19 02:06:55;;;;;;;65.20;61.90;;;;;;;;;;5039102;28;20047;-64
2023/09/19 02:09:21;;;;;;;63.28;60.00;;;;;;;;;;5039699;28;20104;-64
2023/09/19 02:11:46;;;;;;;63.45;60.20;;;;;;;;;;5039353;28;20238;-64
2023/09/19 02:14:12;;;;;;;62.05;58.85;;;;;;;;;;5040480;28;20029;-64
2023/09/19 02:16:37;;;;;;;63.92;60.42;;;;;;;;;;5042525;28;20717;-64
2023/09/19 02:19:05;;;;;;;61.92;58.75;;;;;;;;;;5043991;28;20081;-64
2023/09/19 02:21:31;;;;;;;60.42;57.38;;;;;;;;;;5039650;28;20029;-63
2023/09/19 02:23:57;;;;;;;64.93;61.58;;;;;;;;;;5056718;28;20048;-64
2023/09/19 02:26:23;;;;;;;65.50;62.08;;;;;;;;;;5040380;28;20064;-66
2023/09/19 02:28:48;;;;;;;63.05;59.88;;;;;;;;;;5043291;28;21857;-66
2023/09/19 02:31:16;;;;;;;63.13;59.85;;;;;;;;;;5038796;28;20028;-66
2023/09/19 02:33:42;;;;;;;65.55;62.25;;;;;;;;;;5042120;28;20044;-66
2023/09/19 02:36:08;;;;;;;71.95;68.15;;;;;;;;;;5043125;28;20545;-65
2023/09/19 02:38:34;;;;;;;61.97;58.80;;;;;;;;;;5041166;28;20031;-66
2023/09/19 02:40:59;;;;;;;64.30;61.05;;;;;;;;;;5042320;28;20041;-66
2023/09/19 02:43:25;;;;;;;70.63;66.95;;;;;;;;;;5039338;28;20056;-64
2023/09/19 02:45:53;;;;;;;68.00;64.55;;;;;;;;;;5041434;28;20059;-64
2023/09/19 02:48:18;;;;;;;61.95;58.75;;;;;;;;;;5040925;28;20041;-64
2023/09/19 02:50:44;;;;;;;63.15;59.92;;;;;;;;;;5042414;28;20494;-65
2023/09/19 02:53:12;;;;;;;68.30;64.63;;;;;;;;;;5041131;28;20118;-66
2023/09/19 02:55:39;;;;;;;68.43;64.95;;;;;;;;;;5041929;28;20052;-65
2023/09/19 02:58:07;;;;;;;66.85;63.45;;;;;;;;;;5041155;28;20380;-64
2023/09/19 03:00:35;;;;;;;62.83;59.60;;;;;;;;;;5040124;28;20051;-64
2023/09/19 03:03:01;;;;;;;66.63;63.25;;;;;;;;;;5042496;28;20043;-66
2023/09/19 03:05:30;;;;;;;65.25;61.92;;;;;;;;;;5042051;28;20021;-64
2023/09/19 03:07:57;;;;;;;63.65;60.42;;;;;;;;;;5041790;28;20028;-66
2023/09/19 03:10:24;;;;;;;62.40;59.25;;;;;;;;;;5025040;28;20048;-66
2023/09/19 03:12:50;;;;;;;64.60;61.22;;;;;;;;;;5041683;28;20032;-64
2023/09/19 03:15:16;;;;;;;59.20;56.17;;;;;;;;;;5040569;28;20075;-66
2023/09/19 03:17:47;;;;;;;62.53;59.30;;;;;;;;;;5027023;28;20033;-67
2023/09/19 03:20:14;;;;;;;61.13;57.97;;;;;;;;;;5040414;28;20025;-66
2023/09/19 03:22:40;;;;;;;61.65;58.50;;;;;;;;;;5038252;28;20065;-64
2023/09/19 03:25:07;;;;;;;60.88;57.83;;;;;;;;;;5042943;28;20485;-64
2023/09/19 03:27:36;;;;;;;62.95;59.78;;;;;;;;;;5040452;28;20523;-64
2023/09/19 03:30:08;;;;;;;58.22;55.25;;;;;;;;;;5040570;28;20630;-64
2023/09/19 03:32:34;;;;;;;61.78;58.65;;;;;;;;;;5042732;28;20109;-64
2023/09/19 03:34:59;;;;;;;65.70;62.38;;;;;;;;;;5038909;28;20031;-63
2023/09/19 03:37:26;;;;;;;54.63;51.83;;;;;;;;;;5039186;28;20056;-63
2023/09/19 03:39:51;;;;;;;61.25;58.15;;;;;;;;;;5039971;28;20045;-64
2023/09/19 03:42:17;;;;;;;58.15;55.20;;;;;;;;;;5040449;28;20036;-63
2023/09/19 03:44:42;;;;;;;57.78;54.85;;;;;;;;;;5040263;28;20033;-65
2023/09/19 03:47:07;;;;;;;54.88;52.03;;;;;;;;;;5041344;28;20043;-65
2023/09/19 03:49:33;;;;;;;56.85;54.00;;;;;;;;;;5041294;28;20039;-65
2023/09/19 03:51:59;;;;;;;53.53;50.83;;;;;;;;;;5039337;28;20086;-66
2023/09/19 03:54:24;;;;;;;56.10;53.22;;;;;;;;;;5041600;28;20044;-66
2023/09/19 03:56:50;;;;;;;51.58;48.92;;;;;;;;;;5042187;28;20040;-66
2023/09/19 03:59:16;;;;;;;55.45;52.63;;;;;;;;;;5037622;28;20032;-65
2023/09/19 04:01:41;;;;;;;52.40;49.72;;;;;;;;;;5038052;28;20129;-66
2023/09/19 04:04:10;;;;;;;54.05;51.25;;;;;;;;;;5040457;28;20052;-64
2023/09/19 04:06:35;;;;;;;54.38;51.63;;;;;;;;;;5039092;28;20414;-66
2023/09/19 04:09:03;;;;;;;57.67;54.75;;;;;;;;;;5026504;28;20471;-64
2023/09/19 04:11:30;;;;;;;57.53;54.60;;;;;;;;;;5038982;28;20471;-66
2023/09/19 04:13:55;;;;;;;59.88;56.85;;;;;;;;;;5038819;28;20135;-65
2023/09/19 04:16:21;;;;;;;56.85;53.97;;;;;;;;;;5025530;28;20741;-64
2023/09/19 04:18:46;;;;;;;61.00;57.85;;;;;;;;;;5040191;28;20025;-66
2023/09/19 04:21:11;;;;;;;62.13;59.00;;;;;;;;;;5044221;28;20049;-64
2023/09/19 04:23:37;;;;;;;57.30;54.42;;;;;;;;;;5038131;28;20033;-64
2023/09/19 04:26:04;;;;;;;61.35;58.28;;;;;;;;;;5040180;28;20032;-65
2023/09/19 04:28:31;;;;;;;57.78;54.83;;;;;;;;;;5037605;28;20463;-66
2023/09/19 04:30:57;;;;;;;55.33;52.47;;;;;;;;;;5039190;28;20075;-64
2023/09/19 04:33:22;;;;;;;57.15;54.20;;;;;;;;;;5040163;28;20690;-64
2023/09/19 04:35:51;;;;;;;59.30;56.25;;;;;;;;;;5041093;28;20041;-65
2023/09/19 04:38:18;;;;;;;53.88;51.03;;;;;;;;;;5040295;28;20033;-65
2023/09/19 04:40:44;;;;;;;51.08;48.47;;;;;;;;;;5039689;28;20037;-64
2023/09/19 04:43:09;;;;;;;52.35;49.72;;;;;;;;;;5037481;28;20026;-65
2023/09/19 04:45:35;;;;;;;53.67;50.97;;;;;;;;;;5037334;28;20040;-65
2023/09/19 04:48:00;;;;;;;60.63;57.58;;;;;;;;;;5039660;28;20625;-64
2023/09/19 04:50:27;;;;;;;55.35;52.47;;;;;;;;;;5040609;28;20029;-63
2023/09/19 04:52:53;;;;;;;57.03;54.10;;;;;;;;;;5038851;28;20132;-64
2023/09/19 04:55:19;;;;;;;62.03;58.90;;;;;;;;;;5037988;28;20111;-63
2023/09/19 04:57:49;;;;;;;60.58;57.53;;;;;;;;;;5041099;28;20078;-63
2023/09/19 05:00:19;;;;;;;60.90;57.67;;;;;;;;;;5038578;28;20067;-63
2023/09/19 05:02:45;;;;;;;55.08;52.22;;;;;;;;;;5039197;28;20127;-63
2023/09/19 05:05:11;;;;;;;51.33;48.58;;;;;;;;;;5026143;28;20348;-65
2023/09/19 05:07:39;;;;;;;51.45;48.83;;;;;;;;;;5039484;28;20286;-65
2023/09/19 05:10:07;;;;;;;49.38;46.85;;;;;;;;;;5041771;28;20090;-64
2023/09/19 05:12:34;;;;;;;50.22;47.67;;;;;;;;;;5038466;28;20558;-64
2023/09/19 05:15:01;;;;;;;41.80;39.67;;;;;;;;;;5038367;28;20045;-63
2023/09/19 05:17:27;;;;;;;38.50;36.47;;;;;;;;;;5038305;28;20040;-64
2023/09/19 05:19:52;;;;;;;38.30;36.25;;;;;;;;;;5038475;28;20036;-64
2023/09/19 05:22:18;;;;;;;39.72;37.63;;;;;;;;;;5038440;28;20060;-63
2023/09/19 05:24:47;;;;;;;38.60;36.60;;;;;;;;;;5039351;28;20367;-63
2023/09/19 05:27:12;;;;;;;40.88;38.78;;;;;;;;;;5038948;28;20080;-64
2023/09/19 05:29:37;;;;;;;42.08;39.92;;;;;;;;;;5036147;28;20025;-64
2023/09/19 05:32:04;;;;;;;43.08;40.88;;;;;;;;;;5036590;28;20120;-63
2023/09/19 05:34:30;;;;;;;42.20;40.00;;;;;;;;;;5037138;28;20034;-63
2023/09/19 05:36:55;;;;;;;49.75;47.22;;;;;;;;;;5038859;28;20106;-64
2023/09/19 05:39:22;;;;;;;45.63;43.25;;;;;;;;;;5039275;28;20033;-64
2023/09/19 05:41:48;;;;;;;47.38;44.97;;;;;;;;;;5037517;28;20041;-64
2023/09/19 05:44:16;;;;;;;49.45;46.72;;;;;;;;;;5037264;28;20043;-63
2023/09/19 05:46:41;;;;;;;53.58;50.88;;;;;;;;;;5034570;28;20033;-64
2023/09/19 05:49:07;;;;;;;50.58;48.00;;;;;;;;;;5035382;28;20036;-64
2023/09/19 05:51:32;;;;;;;52.85;50.17;;;;;;;;;;5035314;28;20423;-64
2023/09/19 05:53:58;;;;;;;52.75;50.05;;;;;;;;;;5039029;28;20119;-64
2023/09/19 05:56:23;;;;;;;53.63;50.88;;;;;;;;;;5037633;28;20036;-65
2023/09/19 05:58:51;;;;;;;52.67;49.97;;;;;;;;;;5037147;28;20060;-66
2023/09/19 06:01:17;;;;;;;52.60;49.50;;;;;;;;;;5023272;28;20120;-64
2023/09/19 06:03:43;;;;;;;47.58;45.05;;;;;;;;;;5039489;28;20044;-64
2023/09/19 06:06:09;;;;;;;43.80;41.55;;;;;;;;;;5037522;28;20048;-66
2023/09/19 06:08:34;;;;;;;43.85;41.65;;;;;;;;;;5022519;28;20565;-66
2023/09/19 06:11:00;;;;;;;46.05;43.67;;;;;;;;;;5038355;28;20289;-64
2023/09/19 06:13:28;;;;;;;45.33;42.97;;;;;;;;;;5038019;28;20037;-65
2023/09/19 06:15:58;;;;;;;39.53;37.50;;;;;;;;;;5037817;28;20037;-64
2023/09/19 06:18:26;;;;;;;35.00;33.17;;;;;;;;;;5026660;28;20348;-66
2023/09/19 06:20:52;;;;;;;35.92;34.08;;;;;;;;;;5054268;28;20413;-64
2023/09/19 06:23:17;;;;;;;34.38;32.58;;;;;;;;;;5042028;28;20045;-64
2023/09/19 06:25:43;;;;;;;34.78;32.97;;;;;;;;;;5040862;28;20048;-65
2023/09/19 06:28:12;;;;;;;35.22;33.42;;;;;;;;;;5038413;28;20128;-66
2023/09/19 06:30:41;;;;;;;32.80;31.08;;;;;;;;;;5035263;28;20048;-64
2023/09/19 06:33:07;;;;;;;31.35;29.70;;;;;;;;;;5025384;28;20030;-64
2023/09/19 06:35:34;;;;;;;29.45;27.90;;;;;;;;;;5040445;28;20029;-66
2023/09/19 06:38:03;;;;;;;26.30;24.90;;;;;;;;;;5039116;28;20102;-67
2023/09/19 06:40:30;;;;;;;23.58;22.30;;;;;;;;;;5039649;28;20124;-65
2023/09/19 06:42:57;;;;;;;23.98;22.58;;;;;;;;;;5035227;28;20547;-65
2023/09/19 06:45:22;;;;;;;24.65;23.33;;;;;;;;;;5052957;28;20037;-65
2023/09/19 06:47:51;;;;;;;24.70;23.38;;;;;;;;;;5036782;28;20118;-65
2023/09/19 06:50:25;;;;;;;24.73;23.23;;;;;;;;;;5039442;28;20037;-65
2023/09/19 06:52:53;;;;;;;22.30;21.10;;;;;;;;;;5022206;28;20036;-65
2023/09/19 06:55:20;;;;;;;22.65;21.40;;;;;;;;;;5022514;28;20084;-66
2023/09/19 06:57:46;;;;;;;22.08;20.88;;;;;;;;;;5040947;28;20036;-66
2023/09/19 07:00:15;;;;;;;21.35;20.15;;;;;;;;;;5041670;28;20033;-66
2023/09/19 07:03:00;;;;;;;20.25;19.10;;;;;;;;;;5041376;28;20866;-64
2023/09/19 07:05:31;;;;;;;22.13;20.63;;;;;;;;;;5041546;28;20024;-65
2023/09/19 07:08:00;;;;;;;19.77;18.67;;;;;;;;;;5028768;28;20418;-67
2023/09/19 07:10:27;;;;;;;21.85;20.65;;;;;;;;;;5043339;28;20040;-66
2023/09/19 07:12:59;;;;;;;20.10;19.00;;;;;;;;;;5041915;28;20044;-65
2023/09/19 07:15:29;;;;;;;23.02;21.77;;;;;;;;;;5039041;28;20033;-65
2023/09/19 07:17:56;;;;;;;21.90;20.70;;;;;;;;;;5039929;28;20040;-66
2023/09/19 07:20:26;;;;;;;22.70;21.50;;;;;;;;;;5041311;28;20476;-65
2023/09/19 07:22:54;;;;;;;23.15;21.90;;;;;;;;;;5041771;28;20096;-65
2023/09/19 07:25:20;;;;;;;17.88;16.88;;;;;;;;;;5042963;28;20033;-66
2023/09/19 07:27:45;;;;;;;18.42;17.42;;;;;;;;;;5042344;28;20048;-65
2023/09/19 07:30:11;;;;;;;20.15;19.05;;;;;;;;;;5038703;28;20479;-65
2023/09/19 07:32:38;;;;;;;16.15;15.25;;;;;;;;;;5041893;28;20065;-67
2023/09/19 07:35:05;;;;;;;19.83;18.73;;;;;;;;;;5040952;28;20123;-65
2023/09/19 07:37:33;;;;;;;14.90;13.93;;;;;;;;;;5025370;28;20475;-66
2023/09/19 07:39:59;;;;;;;16.38;15.48;;;;;;;;;;5026274;28;20045;-65
2023/09/19 07:42:25;;;;;;;15.63;14.73;;;;;;;;;;5023983;28;20488;-66
2023/09/19 07:44:50;;;;;;;15.90;14.90;;;;;;;;;;5041862;28;20041;-66
2023/09/19 07:47:16;;;;;;;14.70;13.85;;;;;;;;;;5040398;28;20049;-65
2023/09/19 07:49:42;;;;;;;15.95;15.05;;;;;;;;;;5038546;28;20103;-65
2023/09/19 07:52:09;;;;;;;14.27;13.48;;;;;;;;;;5042655;28;20624;-67
2023/09/19 07:54:35;;;;;;;17.27;16.27;;;;;;;;;;5041419;28;20228;-65
2023/09/19 07:57:04;;;;;;;14.75;13.85;;;;;;;;;;5042098;28;20038;-66
2023/09/19 07:59:29;;;;;;;14.48;13.57;;;;;;;;;;5026175;28;20147;-65
2023/09/19 08:01:55;;;;;;;14.40;13.50;;;;;;;;;;5041821;28;20112;-65
2023/09/19 08:04:20;;;;;;;14.43;13.63;;;;;;;;;;5042302;28;20055;-65
2023/09/19 08:06:45;;;;;;;15.63;14.73;;;;;;;;;;5040440;28;20056;-66
2023/09/19 08:09:12;;;;;;;14.48;13.68;;;;;;;;;;5040485;28;20033;-66
2023/09/19 08:11:39;;;;;;;14.00;13.20;;;;;;;;;;5024233;28;20075;-67
2023/09/19 08:14:05;;;;;;;16.85;15.93;;;;;;;;;;5042248;28;20487;-67
2023/09/19 08:16:31;;;;;;;14.38;13.45;;;;;;;;;;5042523;28;20040;-65
2023/09/19 08:18:56;;;;;;;14.38;13.57;;;;;;;;;;5042950;28;20043;-67
2023/09/19 08:21:23;;;;;;;14.15;13.23;;;;;;;;;;5023393;28;20032;-66
2023/09/19 08:23:49;;;;;;;14.63;13.73;;;;;;;;;;5042539;28;20033;-66
2023/09/19 08:26:15;;;;;;;13.75;12.95;;;;;;;;;;5037787;28;20098;-66
2023/09/19 08:28:43;;;;;;;14.98;14.13;;;;;;;;;;5038056;28;20087;-66
2023/09/19 08:31:08;;;;;;;14.25;13.45;;;;;;;;;;5041353;28;20498;-66
2023/09/19 08:33:35;;;;;;;14.93;14.10;;;;;;;;;;5052090;28;20033;-69
2023/09/19 08:36:04;;;;;;;15.18;14.27;;;;;;;;;;5039921;28;20036;-70
2023/09/19 08:38:35;;;;;;;14.30;13.40;;;;;;;;;;5040211;28;20098;-67
2023/09/19 08:41:04;;;;;;;15.10;14.20;;;;;;;;;;5041590;28;20192;-67
2023/09/19 08:43:30;;;;;;;14.70;13.80;;;;;;;;;;5041640;28;20033;-68
2023/09/19 08:46:13;;;;;;;15.18;14.27;;;;;;;;;;5039096;28;20037;-71
2023/09/19 08:49:01;;;;;;;14.48;13.68;;;;;;;;;;5025202;28;20031;-67
2023/09/19 08:51:38;;;;;;;14.27;13.48;;;;;;;;;;5020859;28;20040;-66
2023/09/19 08:54:07;;;;;;;18.05;17.05;;;;;;;;;;5039139;28;20032;-72
2023/09/19 08:56:33;;;;;;;28.05;26.58;;;;;;;;;;5040697;28;20090;-71
2023/09/19 08:59:09;;;;;;;34.50;32.70;;;;;;;;;;5039251;28;20041;-69
2023/09/19 09:01:35;;;;;;;29.73;28.17;;;;;;;;;;5040349;28;20033;-68
2023/09/19 09:04:01;;;;;;;25.73;24.33;;;;;;;;;;5039612;28;20048;-69
2023/09/19 09:06:32;;;;;;;27.40;25.90;;;;;;;;;;5038672;28;20028;-72
2023/09/19 09:08:58;;;;;;;;;;;;;;;;;;5038313;28;20057;-66
2023/09/19 09:11:24;;;;;;;24.00;22.70;;;;;;;;;;5038993;28;20382;-71
2023/09/19 09:13:50;;;;;;;38.90;26.10;;;;;;;;;;5032381;28;20055;-69
2023/09/19 09:16:18;;;;;;;29.60;28.08;;;;;;;;;;5040981;28;20348;-76
2023/09/19 09:18:45;;;;;;;27.05;25.25;;;;;;;;;;5039192;28;20116;-69
2023/09/19 09:21:11;;;;;;;27.15;25.63;;;;;;;;;;5024729;28;20587;-72
2023/09/19 09:23:36;;;;;;;41.38;39.28;;;;;;;;;;5038340;28;20119;-67
2023/09/19 09:26:02;;;;;;;41.50;39.40;;;;;;;;;;5022919;28;20052;-66
2023/09/19 09:28:30;;;;;;;32.90;31.20;;;;;;;;;;5038650;28;20037;-67
2023/09/19 09:30:58;;;;;;;59.53;55.97;;;;;;;;;;5047502;28;20037;-66
2023/09/19 09:33:24;;;;;;;52.30;49.60;;;;;;;;;;5034439;28;20048;-69
2023/09/19 09:36:00;;;;;;;45.33;43.03;;;;;;;;;;5036969;28;20372;-67
2023/09/19 09:38:28;;;;;;;56.70;53.67;;;;;;;;;;5038184;28;20029;-67
2023/09/19 09:43:41;;;;;;;66.25;62.95;;;;;;;;;;5038744;28;20037;-67
2023/09/19 09:51:59;;;;;;;48.85;46.35;;;;;;;;;;5044483;28;20037;-67
2023/09/19 09:54:28;;;;;;;27.38;25.90;;;;;;;;;;5020615;28;20032;-66
2023/09/19 09:56:59;;;;;;;28.33;26.65;;;;;;;;;;5045034;28;20028;-67
2023/09/19 09:59:46;;;;;;;29.63;27.95;;;;;;;;;;5019781;28;20557;-76
2023/09/19 10:02:20;;;;;;;29.17;27.63;;;;;;;;;;5040351;28;20022;-72
2023/09/19 10:04:51;;;;;;;28.33;26.83;;;;;;;;;;5039556;28;20512;-77
2023/09/19 10:07:31;;;;;;;30.90;29.27;;;;;;;;;;5039356;28;20028;-74
2023/09/19 10:10:04;;;;;;;31.90;30.20;;;;;;;;;;5037965;28;20044;-72
2023/09/19 10:12:31;;;;;;;29.25;27.70;;;;;;;;;;5036187;28;20123;-73
2023/09/19 10:15:00;;;;;;;34.42;32.65;;;;;;;;;;5034847;28;20037;-73
2023/09/19 10:17:28;;;;;;;30.45;28.80;;;;;;;;;;5021354;28;20033;-70
2023/09/19 10:20:05;;;;;;;64.57;61.35;;;;;;;;;;5037368;28;20104;-72
2023/09/19 10:22:32;;;;;;;69.00;65.45;;;;;;;;;;5055492;28;20045;-70
2023/09/19 10:24:59;;;;;;;56.08;53.25;;;;;;;;;;5037058;28;20128;-66
2023/09/19 10:27:26;;;;;;;49.90;47.38;;;;;;;;;;5037405;28;20029;-66
2023/09/19 10:29:56;;;;;;;40.03;37.92;;;;;;;;;;5034595;28;20115;-67
2023/09/19 10:32:23;;;;;;;;;;;;;;;;;;5041872;28;20029;-67
2023/09/19 10:34:49;;;;;;;30.50;28.90;;;;;;;;;;5040373;28;19917;-67
2023/09/19 10:37:16;;;;;;;32.95;31.25;;;;;;;;;;5043315;28;20044;-74
2023/09/19 10:39:46;;;;;;;33.35;31.60;;;;;;;;;;5041902;28;20033;-67
2023/09/19 10:42:17;;;;;;;36.35;34.30;;;;;;;;;;5023967;28;20079;-68
2023/09/19 10:44:44;;;;;;;34.53;32.45;;;;;;;;;;5041612;28;20052;-67
2023/09/19 10:47:10;;;;;;;43.63;41.38;;;;;;;;;;5042137;28;20041;-67
2023/09/19 10:49:46;;;;;;;42.78;40.63;;;;;;;;;;5039964;28;20033;-67
2023/09/19 10:52:18;;;;;;;35.08;33.28;;;;;;;;;;5039194;28;20032;-67
2023/09/19 10:54:48;;;;;;;35.90;33.85;;;;;;;;;;5024563;28;20106;-67
2023/09/19 10:57:19;;;;;;;44.83;42.42;;;;;;;;;;5040346;28;20037;-69
2023/09/19 11:00:21;;;;;;;41.15;39.03;;;;;;;;;;5040317;28;20033;-67
2023/09/19 11:03:09;;;;;;;40.63;38.55;;;;;;;;;;5040985;28;20056;-67
2023/09/19 11:05:40;;;;;;;46.63;44.22;;;;;;;;;;5039401;28;20265;-67
2023/09/19 11:08:11;;;;;;;49.22;46.75;;;;;;;;;;5041432;28;20632;-68
2023/09/19 11:10:50;;;;;;;;;;;;;;;;;;5043005;28;20051;-67
2023/09/19 11:13:25;;;;;;;39.78;37.60;;;;;;;;;;5038671;28;19920;-68
2023/09/19 11:16:00;;;;;;;53.65;50.95;;;;;;;;;;5028319;28;20029;-67
2023/09/19 11:18:41;;;;;;;58.78;55.80;;;;;;;;;;5027032;28;20039;-67
2023/09/19 11:21:31;;;;;;;67.57;64.20;;;;;;;;;;5043641;28;20108;-67
2023/09/19 11:24:09;;;;;;;62.72;59.60;;;;;;;;;;5040171;28;20025;-67
2023/09/19 11:26:48;;;;;;;64.38;61.13;;;;;;;;;;5043205;28;20041;-64
2023/09/19 11:29:31;;;;;;;64.25;61.03;;;;;;;;;;5026773;28;20089;-67
2023/09/19 11:31:59;;;;;;;65.18;61.92;;;;;;;;;;5042261;28;20033;-67
2023/09/19 11:34:39;;;;;;;71.22;67.68;;;;;;;;;;5039005;28;20125;-67
2023/09/19 11:37:11;;;;;;;65.53;62.25;;;;;;;;;;5040136;28;20061;-66
2023/09/19 11:39:42;;;;;;;63.65;60.47;;;;;;;;;;5039629;28;20029;-67
2023/09/19 11:42:27;;;;;;;;;;;;;;;;;;5040475;28;20020;-67
2023/09/19 11:44:55;;;;;;;53.75;51.05;;;;;;;;;;5031598;28;20377;-66
2023/09/19 11:47:24;;;;;;;52.65;49.97;;;;;;;;;;5037318;28;20064;-66
2023/09/19 11:49:53;;;;;;;60.30;57.30;;;;;;;;;;5037756;28;21244;-78
2023/09/19 11:52:24;;;;;;;66.75;63.38;;;;;;;;;;5062022;28;20057;-75
2023/09/19 11:54:56;;;;;;;79.45;75.40;;;;;;;;;;5040213;28;20041;-76
2023/09/19 11:57:22;;;;;;;81.70;77.68;;;;;;;;;;5025671;28;20037;-76
2023/09/19 11:59:48;;;;;;;91.47;86.97;;;;;;;;;;5039496;28;20474;-75
2023/09/19 12:02:28;;;;;;;83.25;79.10;;;;;;;;;;5045396;28;20116;-69
2023/09/19 12:04:55;;;;;;;93.30;88.65;;;;;;;;;;5040270;28;20064;-73
2023/09/19 12:07:21;;;;;;;105.63;100.43;;;;;;;;;;5040581;28;20051;-72
2023/09/19 12:10:02;;;;;;;96.65;91.93;;;;;;;;;;5040105;28;20098;-73
2023/09/19 12:12:27;;;;;;;;;;;;;;;;;;5036867;28;20529;-69
2023/09/19 12:14:53;;;;;;;72.32;68.50;;;;;;;;;;5014394;28;19952;-72
2023/09/19 12:17:22;;;;;;;55.17;52.35;;;;;;;;;;5039374;28;20041;-70
2023/09/19 12:19:56;;;;;;;54.28;51.53;;;;;;;;;;5042533;28;20075;-72
2023/09/19 12:22:21;;;;;;;56.67;53.75;;;;;;;;;;5037648;28;20120;-70
2023/09/19 12:24:47;;;;;;;107.75;102.43;;;;;;;;;;5040757;28;20147;-65
2023/09/19 12:27:13;;;;;;;76.82;72.82;;;;;;;;;;5038121;28;20037;-72
2023/09/19 12:29:48;;;;;;;57.65;54.78;;;;;;;;;;5040230;28;20044;-69
2023/09/19 12:32:16;;;;;;;77.90;74.10;;;;;;;;;;5041837;28;20036;-70
2023/09/19 12:34:46;;;;;;;86.88;82.50;;;;;;;;;;5040860;28;20519;-74
2023/09/19 12:37:27;;;;;;;58.10;55.20;;;;;;;;;;5025354;28;20041;-66
2023/09/19 12:40:03;;;;;;;106.57;101.30;;;;;;;;;;5038401;28;20091;-66
2023/09/19 12:42:35;;;;;;;73.60;69.93;;;;;;;;;;5039656;28;20042;-70
2023/09/19 12:45:01;;;;;;;77.50;73.65;;;;;;;;;;5040172;28;20032;-66
2023/09/19 12:47:29;;;;;;;80.18;76.07;;;;;;;;;;5038586;28;20037;-66
2023/09/19 12:50:14;;;;;;;103.13;98.05;;;;;;;;;;5041277;28;20051;-65
2023/09/19 12:52:43;;;;;;;67.13;63.72;;;;;;;;;;5037041;28;20311;-66
2023/09/19 12:55:27;;;;;;;68.38;64.95;;;;;;;;;;5035487;28;20048;-65
2023/09/19 12:57:58;;;;;;;75.22;71.30;;;;;;;;;;5037623;28;20029;-65
2023/09/19 13:00:42;;;;;;;93.15;88.55;;;;;;;;;;5039718;28;20036;-64
2023/09/19 13:03:28;;;;;;;96.40;91.57;;;;;;;;;;5038543;28;20036;-65
2023/09/19 13:06:02;;;;;;;60.63;57.55;;;;;;;;;;5043410;28;20454;-68
2023/09/19 13:08:32;;;;;;;54.95;52.20;;;;;;;;;;5039867;28;20443;-69
2023/09/19 13:11:14;;;;;;;63.50;60.35;;;;;;;;;;5042066;28;20028;-65
2023/09/19 13:14:01;;;;;;;61.38;58.17;;;;;;;;;;5040924;28;20608;-76
2023/09/19 13:16:27;;;;;;;57.38;54.35;;;;;;;;;;5044713;28;20040;-73
2023/09/19 13:18:56;;;;;;;72.40;68.82;;;;;;;;;;5042539;28;20471;-72
2023/09/19 13:21:32;;;;;;;99.68;94.80;;;;;;;;;;5049503;28;20033;-65
2023/09/19 13:24:27;;;;;;;55.60;52.83;;;;;;;;;;5033610;28;20036;-64
2023/09/19 13:26:54;;;;;;;63.05;59.85;;;;;;;;;;5036483;28;20034;-65
2023/09/19 13:29:20;;;;;;;59.85;56.78;;;;;;;;;;5037435;28;20178;-64
2023/09/19 13:31:49;;;;;;;57.75;54.85;;;;;;;;;;5038168;28;20116;-65
2023/09/19 13:34:17;;;;;;;64.07;60.90;;;;;;;;;;5036320;28;20463;-64
2023/09/19 13:36:42;;;;;;;63.08;59.90;;;;;;;;;;5039845;28;20265;-66
2023/09/19 13:39:09;;;;;;;67.93;64.55;;;;;;;;;;5020490;28;20040;-67
2023/09/19 13:41:36;;;;;;;65.15;61.85;;;;;;;;;;5055380;28;20033;-64
2023/09/19 13:44:05;;;;;;;51.53;48.92;;;;;;;;;;5037673;28;20036;-64
2023/09/19 13:46:33;;;;;;;59.75;56.65;;;;;;;;;;5036801;28;20690;-64
2023/09/19 13:49:03;;;;;;;55.03;52.25;;;;;;;;;;5040708;28;20136;-64
2023/09/19 13:51:32;;;;;;;56.75;53.92;;;;;;;;;;5019992;28;20091;-64
2023/09/19 13:53:57;;;;;;;62.00;58.90;;;;;;;;;;5040795;28;20044;-64
2023/09/19 13:56:22;;;;;;;60.80;57.80;;;;;;;;;;5038236;28;20223;-65
2023/09/19 13:58:48;;;;;;;74.10;70.40;;;;;;;;;;5038032;28;20041;-64
2023/09/19 14:01:14;;;;;;;48.67;46.20;;;;;;;;;;5037419;28;20037;-64
2023/09/19 14:03:40;;;;;;;48.05;45.60;;;;;;;;;;5037710;28;20150;-64
2023/09/19 14:06:05;;;;;;;65.40;62.15;;;;;;;;;;5036955;28;20036;-64
2023/09/19 14:08:33;;;;;;;66.70;63.38;;;;;;;;;;5037616;28;20040;-63
2023/09/19 14:10:58;;;;;;;70.43;66.93;;;;;;;;;;5037834;28;20068;-64
2023/09/19 14:13:25;;;;;;;67.53;64.20;;;;;;;;;;5035867;28;20045;-65
2023/09/19 14:15:50;;;;;;;75.93;71.88;;;;;;;;;;5019650;28;20046;-64
2023/09/19 14:18:16;;;;;;;77.57;73.72;;;;;;;;;;5039920;28;20024;-64
2023/09/19 14:20:42;;;;;;;81.40;77.40;;;;;;;;;;5036047;28;20112;-64
2023/09/19 14:23:07;;;;;;;77.25;73.40;;;;;;;;;;5035920;28;20156;-64
2023/09/19 14:25:36;;;;;;;89.75;85.28;;;;;;;;;;5037015;28;20045;-64
2023/09/19 14:28:02;;;;;;;95.05;90.38;;;;;;;;;;5037863;28;20111;-64
2023/09/19 14:30:27;;;;;;;83.07;78.97;;;;;;;;;;5036977;28;20461;-65
2023/09/19 14:32:53;;;;;;;95.22;90.55;;;;;;;;;;5037207;28;20041;-64
2023/09/19 14:35:19;;;;;;;92.07;87.57;;;;;;;;;;5038254;28;20104;-64
2023/09/19 14:37:45;;;;;;;101.03;95.72;;;;;;;;;;5036009;28;20041;-65
2023/09/19 14:40:12;;;;;;;99.18;94.32;;;;;;;;;;5037485;28;20377;-65